Time,TemperatureF,DewpointF,PressureIn,WindDirection,WindDirectionDegrees,WindSpeedMPH,WindSpeedGustMPH,Humidity,HourlyPrecipIn,Conditions,Clouds,dailyrainin,SoftwareType,DateUTC
2013-01-12 00:10:00,61.3,61.0,29.70,SSE,147,2.0,-999.0,98,-99.99,,,0.00,weatherlink.com 1.10,2013-01-12 06:10:00,
2013-01-12 00:25:00,61.6,61.0,29.71,WSW,258,0.0,-999.0,99,-99.99,,,0.00,weatherlink.com 1.10,2013-01-12 06:25:00,
2013-01-12 00:40:00,62.1,62.0,29.71,SE,144,4.0,-999.0,99,-99.99,,,0.00,weatherlink.com 1.10,2013-01-12 06:40:00,
2013-01-12 00:55:00,62.4,62.0,29.71,South,181,0.0,-999.0,99,-99.99,,,0.00,weatherlink.com 1.10,2013-01-12 06:55:00,
2013-01-12 01:10:00,62.6,62.0,29.71,SSE,158,0.0,-999.0,99,-99.99,,,0.00,weatherlink.com 1.10,2013-01-12 07:10:00,
2013-01-12 01:25:00,62.6,62.0,29.70,SE,140,1.0,-999.0,99,-99.99,,,0.00,weatherlink.com 1.10,2013-01-12 07:25:00,
2013-01-12 01:41:00,62.7,63.0,29.70,SSE,161,6.0,-999.0,99,-99.99,,,0.00,weatherlink.com 1.10,2013-01-12 07:41:00,
2013-01-12 01:56:00,62.7,63.0,29.71,SE,144,0.0,-999.0,99,-99.99,,,0.00,weatherlink.com 1.10,2013-01-12 07:56:00,
2013-01-12 02:11:00,62.7,63.0,29.69,SE,144,1.0,-999.0,100,-99.99,,,0.00,weatherlink.com 1.10,2013-01-12 08:11:00,
2013-01-12 02:26:00,62.7,63.0,29.69,ESE,106,2.0,-999.0,100,-99.99,,,0.00,weatherlink.com 1.10,2013-01-12 08:26:00,
2013-01-12 02:41:00,62.6,63.0,29.66,East,97,2.0,-999.0,100,-99.99,,,0.00,weatherlink.com 1.10,2013-01-12 08:41:00,
2013-01-12 02:56:00,62.7,63.0,29.67,SSW,203,0.0,-999.0,100,-99.99,,,0.00,weatherlink.com 1.10,2013-01-12 08:56:00,
2013-01-12 03:11:00,62.9,63.0,29.68,SE,131,0.0,-999.0,100,-99.99,,,0.00,weatherlink.com 1.10,2013-01-12 09:11:00,
2013-01-12 03:26:00,62.9,63.0,29.68,SSE,161,1.0,-999.0,100,-99.99,,,0.00,weatherlink.com 1.10,2013-01-12 09:26:00,
2013-01-12 03:41:00,63.1,63.0,29.67,SSW,193,4.0,-999.0,100,-99.99,,,0.00,weatherlink.com 1.10,2013-01-12 09:41:00,
2013-01-12 03:56:00,63.2,63.0,29.70,WSW,237,8.0,-999.0,100,-99.99,,,0.00,weatherlink.com 1.10,2013-01-12 09:56:00,
2013-01-12 04:11:00,63.2,63.0,29.70,WNW,282,0.0,-999.0,100,-99.99,,,0.00,weatherlink.com 1.10,2013-01-12 10:11:00,
2013-01-12 04:26:00,63.2,63.0,29.69,SE,126,0.0,-999.0,100,-99.99,,,0.00,weatherlink.com 1.10,2013-01-12 10:26:00,
2013-01-12 04:41:00,63.4,63.0,29.68,SE,143,1.0,-999.0,100,-99.99,,,0.00,weatherlink.com 1.10,2013-01-12 10:41:00,
2013-01-12 04:56:00,63.2,63.0,29.68,SE,144,0.0,-999.0,100,-99.99,,,0.00,weatherlink.com 1.10,2013-01-12 10:56:00,
2013-01-12 05:11:00,63.2,63.0,29.68,SSE,167,0.0,-999.0,100,-99.99,,,0.00,weatherlink.com 1.10,2013-01-12 11:11:00,
2013-01-12 05:41:00,62.9,63.0,29.66,SSW,203,0.0,-999.0,100,-99.99,,,0.00,weatherlink.com 1.10,2013-01-12 11:41:00,
2013-01-12 05:56:00,62.6,63.0,29.68,SSW,203,0.0,-999.0,100,-99.99,,,0.00,weatherlink.com 1.10,2013-01-12 11:56:00,
2013-01-12 06:11:00,62.4,62.0,29.68,SSW,203,1.0,-999.0,100,-99.99,,,0.00,weatherlink.com 1.10,2013-01-12 12:11:00,
2013-01-12 06:26:00,62.1,62.0,29.69,SSW,203,0.0,-999.0,100,-99.99,,,0.00,weatherlink.com 1.10,2013-01-12 12:26:00,
2013-01-12 06:41:00,62.0,62.0,29.69,SSW,203,0.0,-999.0,100,-99.99,,,0.00,weatherlink.com 1.10,2013-01-12 12:41:00,
2013-01-12 06:56:00,61.6,62.0,29.70,SSW,203,0.0,-999.0,100,-99.99,,,0.00,weatherlink.com 1.10,2013-01-12 12:56:00,
2013-01-12 07:11:00,61.5,62.0,29.69,SSW,203,0.0,-999.0,100,-99.99,,,0.00,weatherlink.com 1.10,2013-01-12 13:11:00,
2013-01-12 07:26:00,61.3,61.0,29.69,SSW,203,0.0,-999.0,100,-99.99,,,0.00,weatherlink.com 1.10,2013-01-12 13:26:00,
2013-01-12 07:43:00,61.0,61.0,29.69,SSW,203,1.0,-999.0,100,-99.99,,,0.00,weatherlink.com 1.10,2013-01-12 13:43:00,
2013-01-12 07:56:00,60.9,61.0,29.69,North,11,0.0,-999.0,100,-99.99,,,0.00,weatherlink.com 1.10,2013-01-12 13:56:00,
2013-01-12 08:11:00,60.7,61.0,29.70,NNW,342,1.0,-999.0,100,-99.99,,,0.00,weatherlink.com 1.10,2013-01-12 14:11:00,
2013-01-12 08:26:00,60.2,60.0,29.71,North,352,1.0,-999.0,100,-99.99,,,0.00,weatherlink.com 1.10,2013-01-12 14:26:00,
2013-01-12 08:41:00,57.6,58.0,29.71,North,353,1.0,-999.0,100,-99.99,,,0.00,weatherlink.com 1.10,2013-01-12 14:41:00,
2013-01-12 08:56:00,53.9,48.0,29.73,NW,316,9.0,-999.0,81,-99.99,,,0.00,weatherlink.com 1.10,2013-01-12 14:56:00,
2013-01-12 09:11:00,53.2,45.0,29.73,NNE,27,9.0,-999.0,75,-99.99,,,0.00,weatherlink.com 1.10,2013-01-12 15:11:00,
2013-01-12 09:26:00,52.3,44.0,29.74,North,0,2.0,-999.0,74,-99.99,,,0.00,weatherlink.com 1.10,2013-01-12 15:26:00,
2013-01-12 09:41:00,51.6,43.0,29.74,NNE,30,7.0,-999.0,72,-99.99,,,0.00,weatherlink.com 1.10,2013-01-12 15:41:00,
2013-01-12 09:56:00,50.5,44.0,29.74,North,0,4.0,-999.0,77,-99.99,,,0.00,weatherlink.com 1.10,2013-01-12 15:56:00,
2013-01-12 10:11:00,50.2,42.0,29.74,North,0,8.0,-999.0,73,-99.99,,,0.00,weatherlink.com 1.10,2013-01-12 16:11:00,
2013-01-12 10:26:00,50.4,41.0,29.74,NNE,24,7.0,-999.0,70,-99.99,,,0.00,weatherlink.com 1.10,2013-01-12 16:26:00,
2013-01-12 10:41:00,50.4,41.0,29.74,North,0,6.0,-999.0,69,-99.99,,,0.00,weatherlink.com 1.10,2013-01-12 16:41:00,
2013-01-12 10:56:00,49.8,40.0,29.73,NNE,21,8.0,-999.0,70,-99.99,,,0.00,weatherlink.com 1.10,2013-01-12 16:56:00,
2013-01-12 11:12:00,50.2,40.0,29.72,North,10,6.0,-999.0,67,-99.99,,,0.00,weatherlink.com 1.10,2013-01-12 17:12:00,
2013-01-12 11:29:00,50.8,39.0,29.71,NNE,18,4.0,-999.0,64,-99.99,,,0.00,weatherlink.com 1.10,2013-01-12 17:29:00,
2013-01-12 11:42:00,51.1,38.0,29.69,NNE,20,13.0,-999.0,62,-99.99,,,0.00,weatherlink.com 1.10,2013-01-12 17:42:00,
2013-01-12 11:57:00,51.4,39.0,29.68,NW,311,4.0,-999.0,63,-99.99,,,0.00,weatherlink.com 1.10,2013-01-12 17:57:00,
2013-01-12 12:12:00,51.6,39.0,29.67,North,0,7.0,-999.0,62,-99.99,,,0.00,weatherlink.com 1.10,2013-01-12 18:12:00,
2013-01-12 12:27:00,51.6,39.0,29.66,NNW,346,7.0,-999.0,63,-99.99,,,0.00,weatherlink.com 1.10,2013-01-12 18:27:00,
2013-01-12 12:42:00,51.4,38.0,29.66,North,4,4.0,-999.0,61,-99.99,,,0.00,weatherlink.com 1.10,2013-01-12 18:42:00,
2013-01-12 12:57:00,51.1,38.0,29.65,North,11,6.0,-999.0,62,-99.99,,,0.00,weatherlink.com 1.10,2013-01-12 18:57:00,
2013-01-12 13:12:00,50.8,38.0,29.65,NNE,18,9.0,-999.0,63,-99.99,,,0.00,weatherlink.com 1.10,2013-01-12 19:12:00,
2013-01-12 13:27:00,50.4,39.0,29.64,North,11,6.0,-999.0,66,-99.99,,,0.00,weatherlink.com 1.10,2013-01-12 19:27:00,
2013-01-12 13:42:00,50.1,41.0,29.64,North,0,6.0,-999.0,70,-99.99,,,0.00,weatherlink.com 1.10,2013-01-12 19:42:00,
2013-01-12 13:57:00,48.8,42.0,29.61,NNE,17,8.0,-999.0,76,-99.99,,,0.00,weatherlink.com 1.10,2013-01-12 19:57:00,
2013-01-12 14:12:00,48.0,41.0,29.63,NNE,30,6.0,-999.0,76,-99.99,,,0.00,weatherlink.com 1.10,2013-01-12 20:12:00,
2013-01-12 14:27:00,47.4,41.0,29.63,NNW,346,9.0,-999.0,78,-99.99,,,0.00,weatherlink.com 1.10,2013-01-12 20:27:00,
2013-01-12 14:42:00,46.4,40.0,29.66,NW,320,7.0,-999.0,78,-99.99,,,0.00,weatherlink.com 1.10,2013-01-12 20:42:00,
2013-01-12 14:57:00,45.2,40.0,29.64,ENE,64,6.0,-999.0,81,-99.99,,,0.00,weatherlink.com 1.10,2013-01-12 20:57:00,
2013-01-12 15:13:00,44.6,40.0,29.66,NW,319,9.0,-999.0,83,-99.99,,,0.00,weatherlink.com 1.10,2013-01-12 21:13:00,
2013-01-12 15:27:00,43.5,39.0,29.69,North,1,6.0,-999.0,84,-99.99,,,0.00,weatherlink.com 1.10,2013-01-12 21:27:00,
2013-01-12 15:42:00,42.6,39.0,29.70,NNE,14,7.0,-999.0,87,-99.99,,,0.00,weatherlink.com 1.10,2013-01-12 21:42:00,
2013-01-12 15:57:00,41.6,39.0,29.70,NNW,330,6.0,-999.0,91,-99.99,,,0.00,weatherlink.com 1.10,2013-01-12 21:57:00,
2013-01-12 16:12:00,40.9,39.0,29.74,NNW,335,8.0,-999.0,93,-99.99,,,0.00,weatherlink.com 1.10,2013-01-12 22:12:00,
2013-01-12 16:27:00,39.5,38.0,29.74,NNW,335,6.0,-999.0,95,-99.99,,,0.00,weatherlink.com 1.10,2013-01-12 22:27:00,
2013-01-12 16:42:00,38.0,37.0,29.75,NW,308,9.0,-999.0,96,-99.99,,,0.00,weatherlink.com 1.10,2013-01-12 22:42:00,
2013-01-12 16:57:00,36.9,36.0,29.75,NNW,337,8.0,-999.0,96,-99.99,,,0.00,weatherlink.com 1.10,2013-01-12 22:57:00,
2013-01-12 17:12:00,36.3,35.0,29.73,North,11,16.0,-999.0,96,-99.99,,,0.00,weatherlink.com 1.10,2013-01-12 23:12:00,
2013-01-12 17:27:00,36.0,34.0,29.75,North,0,4.0,-999.0,93,-99.99,,,0.00,weatherlink.com 1.10,2013-01-12 23:27:00,
2013-01-12 17:42:00,35.9,34.0,29.78,NNW,346,6.0,-999.0,91,-99.99,,,0.00,weatherlink.com 1.10,2013-01-12 23:42:00,
2013-01-12 17:57:00,35.5,33.0,29.80,NW,322,20.0,-999.0,89,-99.99,,,0.00,weatherlink.com 1.10,2013-01-12 23:57:00,
2013-01-12 18:12:00,35.0,32.0,29.80,NNW,336,7.0,-999.0,89,-99.99,,,0.00,weatherlink.com 1.10,2013-01-13 00:12:00,
2013-01-12 18:28:00,34.6,32.0,29.81,NW,313,4.0,-999.0,91,-99.99,,,0.00,weatherlink.com 1.10,2013-01-13 00:28:00,
2013-01-12 18:43:00,34.4,32.0,29.82,NW,306,11.0,-999.0,90,-99.99,,,0.00,weatherlink.com 1.10,2013-01-13 00:43:00,
2013-01-12 18:58:00,33.7,32.0,29.83,NW,312,6.0,-999.0,94,-99.99,,,0.00,weatherlink.com 1.10,2013-01-13 00:58:00,
2013-01-12 19:13:00,33.5,32.0,29.83,NW,320,4.0,-999.0,95,-99.99,,,0.00,weatherlink.com 1.10,2013-01-13 01:13:00,
2013-01-12 19:28:00,33.5,32.0,29.83,NNE,32,7.0,-999.0,94,-99.99,,,0.00,weatherlink.com 1.10,2013-01-13 01:28:00,
2013-01-12 19:43:00,33.7,32.0,29.83,NW,322,6.0,-999.0,93,-99.99,,,0.01,weatherlink.com 1.10,2013-01-13 01:43:00,
2013-01-12 19:58:00,33.8,32.0,29.84,NW,312,4.0,-999.0,92,-99.99,,,0.01,weatherlink.com 1.10,2013-01-13 01:58:00,
2013-01-12 20:13:00,34.1,32.0,29.84,North,0,13.0,-999.0,90,-99.99,,,0.01,weatherlink.com 1.10,2013-01-13 02:13:00,
2013-01-12 20:28:00,34.3,31.0,29.83,North,359,6.0,-999.0,89,-99.99,,,0.01,weatherlink.com 1.10,2013-01-13 02:28:00,
2013-01-12 20:43:00,34.3,31.0,29.84,North,4,7.0,-999.0,89,-99.99,,,0.01,weatherlink.com 1.10,2013-01-13 02:43:00,
2013-01-12 20:58:00,34.3,31.0,29.84,NW,315,6.0,-999.0,88,-99.99,,,0.01,weatherlink.com 1.10,2013-01-13 02:58:00,
2013-01-12 21:13:00,34.1,31.0,29.85,NW,322,7.0,-999.0,88,-99.99,,,0.01,weatherlink.com 1.10,2013-01-13 03:13:00,
2013-01-12 21:28:00,34.0,31.0,29.86,NW,322,8.0,-999.0,87,-99.99,,,0.01,weatherlink.com 1.10,2013-01-13 03:28:00,
2013-01-12 21:43:00,33.7,30.0,29.85,NW,311,6.0,-999.0,86,-99.99,,,0.01,weatherlink.com 1.10,2013-01-13 03:43:00,
2013-01-12 21:58:00,33.2,29.0,29.87,NNE,24,7.0,-999.0,84,-99.99,,,0.01,weatherlink.com 1.10,2013-01-13 03:58:00,
2013-01-12 22:13:00,33.2,29.0,29.87,NW,326,2.0,-999.0,83,-99.99,,,0.01,weatherlink.com 1.10,2013-01-13 04:13:00,
2013-01-12 22:28:00,33.2,29.0,29.88,NNW,332,4.0,-999.0,83,-99.99,,,0.01,weatherlink.com 1.10,2013-01-13 04:28:00,
2013-01-12 22:43:00,33.4,29.0,29.89,North,359,4.0,-999.0,83,-99.99,,,0.01,weatherlink.com 1.10,2013-01-13 04:43:00,
2013-01-12 22:58:00,33.1,29.0,29.90,NW,312,7.0,-999.0,84,-99.99,,,0.01,weatherlink.com 1.10,2013-01-13 04:58:00,
2013-01-12 23:13:00,32.7,28.0,29.88,NNE,24,4.0,-999.0,84,-99.99,,,0.01,weatherlink.com 1.10,2013-01-13 05:13:00,
2013-01-12 23:28:00,32.5,28.0,29.89,NW,316,6.0,-999.0,84,-99.99,,,0.01,weatherlink.com 1.10,2013-01-13 05:28:00,
2013-01-12 23:43:00,32.2,28.0,29.90,North,3,6.0,-999.0,83,-99.99,,,0.01,weatherlink.com 1.10,2013-01-13 05:43:00,
2013-01-12 23:58:00,32.1,27.0,29.89,NW,319,4.0,-999.0,82,-99.99,,,0.01,weatherlink.com 1.10,2013-01-13 05:58:00,